Time;durP1;ratioP1;P1;durP2;ratioP2;P2;SDS_P1;SDS_P2;PMS_P1;PMS_P2;Temp;Humidity;BMP_temperature;BMP_pressure;BME280_temperature;BME280_humidity;BME280_pressure;Samples;Min_cycle;Max_cycle;Signal;HPM_P1;HPM_P2
2022/05/26 00:01:52;;;;;;;5.70;1.95;;;15.00;99.90;;;;;;5004199;28;20025;-88
2022/05/26 00:04:17;;;;;;;2.88;1.80;;;15.00;99.90;;;;;;5020939;28;20030;-88
2022/05/26 00:06:44;;;;;;;2.22;1.98;;;15.00;99.90;;;;;;5020635;28;20041;-88
2022/05/26 00:09:09;;;;;;;2.05;1.50;;;15.00;99.90;;;;;;5019846;28;20097;-87
2022/05/26 00:11:37;;;;;;;4.60;1.90;;;15.00;99.90;;;;;;5020649;28;20018;-88
2022/05/26 00:14:08;;;;;;;3.28;1.90;;;15.00;99.90;;;;;;5018531;28;20053;-88
2022/05/26 00:16:42;;;;;;;3.42;2.13;;;15.00;99.90;;;;;;5017033;28;20026;-87
2022/05/26 00:19:08;;;;;;;4.45;1.52;;;15.00;99.90;;;;;;5016655;23;20047;-79
2022/05/26 00:21:33;;;;;;;4.47;1.50;;;15.00;99.90;;;;;;5014630;28;20093;-79
2022/05/26 00:23:59;;;;;;;2.38;1.60;;;15.00;99.90;;;;;;5015371;28;20122;-79
2022/05/26 00:26:25;;;;;;;7.32;1.63;;;15.00;99.90;;;;;;5012387;28;20038;-78
2022/05/26 00:28:51;;;;;;;1.88;1.45;;;15.00;99.90;;;;;;4992339;28;20027;-79
2022/05/26 00:31:17;;;;;;;2.10;1.35;;;15.00;99.90;;;;;;5006394;28;20045;-79
2022/05/26 00:33:43;;;;;;;3.60;1.42;;;15.00;99.90;;;;;;4996655;28;20034;-78
2022/05/26 00:36:11;;;;;;;1.83;1.40;;;15.00;99.90;;;;;;5010649;28;20057;-77
2022/05/26 00:38:38;;;;;;;2.75;0.98;;;15.00;99.90;;;;;;5011838;28;20394;-78
2022/05/26 00:41:07;;;;;;;3.28;1.20;;;15.00;99.90;;;;;;5013188;28;20051;-78
2022/05/26 00:43:34;;;;;;;3.00;1.42;;;15.00;99.90;;;;;;5014694;28;20070;-80
2022/05/26 00:46:12;;;;;;;2.55;1.20;;;14.90;99.90;;;;;;5013685;28;20023;-79
2022/05/26 00:48:47;;;;;;;2.92;1.27;;;14.90;99.90;;;;;;5003869;28;20183;-81
2022/05/26 00:51:15;;;;;;;2.72;1.30;;;15.00;99.90;;;;;;5007223;28;20105;-79
2022/05/26 00:53:51;;;;;;;1.35;1.13;;;14.90;99.90;;;;;;5004851;28;20022;-78
2022/05/26 00:56:22;;;;;;;4.30;1.20;;;14.90;99.90;;;;;;5007541;28;20034;-78
2022/05/26 00:58:55;;;;;;;7.15;1.50;;;14.90;99.90;;;;;;5008506;28;20030;-78
2022/05/26 01:01:21;;;;;;;2.00;1.20;;;14.90;99.90;;;;;;5009540;28;20034;-79
2022/05/26 01:03:55;;;;;;;2.35;1.30;;;14.90;99.90;;;;;;5009805;28;20030;-80
2022/05/26 01:06:41;;;;;;;2.33;1.30;;;14.90;99.90;;;;;;5009712;28;20058;-77
2022/05/26 01:09:07;;;;;;;2.83;1.45;;;14.90;99.90;;;;;;5005714;28;20038;-78
2022/05/26 01:11:36;;;;;;;4.10;1.45;;;14.90;99.90;;;;;;5003714;28;20027;-79
2022/05/26 01:14:09;;;;;;;4.32;1.27;;;14.90;99.90;;;;;;5006016;28;20031;-78
2022/05/26 01:16:54;;;;;;;5.65;1.67;;;14.90;99.90;;;;;;5004878;28;20038;-78
2022/05/26 01:19:45;;;;;;;1.70;1.40;;;14.80;99.90;;;;;;5006809;28;20058;-77
2022/05/26 01:22:27;;;;;;;2.53;1.63;;;14.90;99.90;;;;;;5013068;28;20086;-78
2022/05/26 01:25:20;;;;;;;2.53;1.55;;;14.90;99.90;;;;;;5013289;28;20056;-79
2022/05/26 01:28:08;;;;;;;3.67;1.80;;;14.90;99.90;;;;;;5008734;28;20030;-79
2022/05/26 01:30:50;;;;;;;2.63;1.48;;;14.90;99.90;;;;;;5005619;28;20053;-79
2022/05/26 01:33:16;;;;;;;2.95;1.55;;;14.90;99.90;;;;;;5004537;28;20053;-80
2022/05/26 01:36:24;;;;;;;3.97;1.70;;;14.90;99.90;;;;;;5007961;28;20022;-79
2022/05/26 01:39:13;;;;;;;5.03;1.85;;;14.90;99.90;;;;;;4972398;28;20050;-81
2022/05/26 01:42:10;;;;;;;4.03;1.40;;;14.90;99.90;;;;;;5009350;28;20085;-80
2022/05/26 01:44:46;;;;;;;2.03;1.50;;;14.90;99.90;;;;;;5007626;28;20042;-77
2022/05/26 01:47:47;;;;;;;5.50;1.35;;;14.90;99.90;;;;;;5015027;28;20025;-77
2022/05/26 01:50:31;;;;;;;3.97;1.67;;;14.80;99.90;;;;;;5011575;28;20034;-78
2022/05/26 01:53:19;;;;;;;2.57;1.63;;;14.80;99.90;;;;;;5018324;28;20048;-77
2022/05/26 01:56:27;;;;;;;3.25;1.35;;;14.80;99.90;;;;;;5017450;28;20459;-78
2022/05/26 01:59:18;;;;;;;1.92;1.40;;;14.80;99.90;;;;;;4958873;29;20051;-79
2022/05/26 02:01:55;;;;;;;1.50;1.40;;;14.80;99.90;;;;;;4959087;29;20034;-78
2022/05/26 02:04:40;;;;;;;3.70;1.40;;;14.80;99.90;;;;;;4980314;28;20038;-77
2022/05/26 02:07:12;;;;;;;;;;;14.80;99.90;;;;;;5018490;28;20042;-77
2022/05/26 02:09:41;;;;;;;4.43;1.50;;;14.70;99.90;;;;;;5018247;28;19902;-76
2022/05/26 02:12:19;;;;;;;4.60;1.50;;;14.70;99.90;;;;;;5017653;28;20026;-77
2022/05/26 02:14:50;;;;;;;1.98;1.35;;;14.80;99.90;;;;;;5018455;28;20033;-77
2022/05/26 02:17:55;;;;;;;1.83;1.42;;;14.80;99.90;;;;;;5018290;28;20026;-77
2022/05/26 02:20:43;;;;;;;2.28;1.20;;;14.80;99.90;;;;;;4957180;29;20052;-78
2022/05/26 02:23:19;;;;;;;3.00;1.45;;;14.80;99.90;;;;;;5016653;28;20057;-77
2022/05/26 02:25:45;;;;;;;1.33;1.20;;;14.70;99.90;;;;;;5018139;28;20073;-78
2022/05/26 02:28:11;;;;;;;5.50;1.65;;;14.70;99.90;;;;;;5017579;28;20038;-78
2022/05/26 02:30:41;;;;;;;2.00;1.33;;;14.60;99.90;;;;;;5016940;28;20046;-77
2022/05/26 02:33:11;;;;;;;5.05;1.30;;;14.70;99.90;;;;;;5014179;28;20123;-79
2022/05/26 02:35:44;;;;;;;3.08;1.27;;;14.70;99.90;;;;;;4991005;28;20038;-80
2022/05/26 02:38:19;;;;;;;1.98;1.50;;;14.70;99.90;;;;;;5005613;28;20130;-78
2022/05/26 02:40:45;;;;;;;;;;;14.70;99.90;;;;;;5007202;28;20041;-80
2022/05/26 02:43:21;;;;;;;4.40;1.50;;;14.80;99.90;;;;;;5007079;28;19905;-78
2022/05/26 02:46:08;;;;;;;2.17;1.38;;;14.80;99.90;;;;;;5009637;28;20026;-79
2022/05/26 02:49:13;;;;;;;4.72;1.52;;;14.80;99.90;;;;;;5008016;28;20098;-78
2022/05/26 02:51:44;;;;;;;3.75;1.42;;;14.90;99.90;;;;;;5008518;28;20022;-79
2022/05/26 02:54:35;;;;;;;1.33;1.23;;;14.90;99.90;;;;;;5008608;28;20102;-79
2022/05/26 02:57:13;;;;;;;2.08;1.15;;;14.90;99.90;;;;;;5013214;28;20042;-78
2022/05/26 02:59:45;;;;;;;1.75;1.05;;;14.90;99.90;;;;;;5008808;28;20034;-78
2022/05/26 03:02:21;;;;;;;1.92;1.40;;;14.90;99.90;;;;;;5009474;28;20413;-78
2022/05/26 03:04:54;;;;;;;2.35;1.35;;;14.90;99.90;;;;;;5009406;28;20073;-78
2022/05/26 03:07:24;;;;;;;1.15;1.05;;;14.90;99.90;;;;;;5009353;28;20062;-78
2022/05/26 03:09:51;;;;;;;2.88;1.25;;;14.90;99.90;;;;;;5015059;28;20034;-78
2022/05/26 03:12:30;;;;;;;2.72;1.20;;;14.90;99.90;;;;;;5014611;28;20038;-78
2022/05/26 03:14:56;;;;;;;1.65;1.30;;;14.90;99.90;;;;;;5013200;28;20433;-79
2022/05/26 03:17:22;;;;;;;4.13;1.50;;;14.90;99.90;;;;;;5018181;28;20050;-77
2022/05/26 03:19:48;;;;;;;1.23;1.00;;;14.90;99.90;;;;;;5019584;28;20045;-79
2022/05/26 03:22:15;;;;;;;1.38;1.23;;;15.00;99.90;;;;;;5020125;28;20027;-79
2022/05/26 03:24:40;;;;;;;4.00;1.20;;;15.00;99.90;;;;;;5019445;28;20027;-78
2022/05/26 03:27:06;;;;;;;2.75;1.38;;;15.10;99.90;;;;;;5020032;28;20026;-78
2022/05/26 03:29:32;;;;;;;2.53;1.10;;;15.10;99.90;;;;;;5000927;28;20031;-78
2022/05/26 03:31:58;;;;;;;1.20;0.98;;;15.20;99.90;;;;;;5015079;28;20061;-78
2022/05/26 03:42:39;;;;;;;3.53;1.30;;;15.20;99.90;;;;;;4996976;28;20023;-78
2022/05/26 03:45:06;;;;;;;3.50;1.40;;;15.20;99.90;;;;;;4999207;28;20011;-78
2022/05/26 03:47:32;;;;;;;2.22;1.23;;;15.20;99.90;;;;;;5001976;28;20045;-79
2022/05/26 03:49:58;;;;;;;1.67;1.25;;;15.20;99.90;;;;;;5001971;28;20019;-79
2022/05/26 03:52:24;;;;;;;2.60;1.20;;;15.30;99.90;;;;;;5008090;28;20046;-79
2022/05/26 03:54:49;;;;;;;2.45;1.13;;;15.40;99.90;;;;;;5006262;28;20550;-77
2022/05/26 03:57:26;;;;;;;2.30;1.00;;;15.40;99.90;;;;;;4996035;28;20034;-78
2022/05/26 03:59:52;;;;;;;2.15;1.25;;;15.40;99.90;;;;;;4996218;28;20031;-79
2022/05/26 04:02:18;;;;;;;2.33;1.33;;;15.40;99.90;;;;;;4996235;28;20372;-80
2022/05/26 04:04:44;;;;;;;6.20;2.80;;;15.50;99.90;;;;;;5002363;28;20042;-79
2022/05/26 04:07:11;;;;;;;1.25;1.13;;;15.50;99.90;;;;;;5004740;28;20137;-78
2022/05/26 04:09:37;;;;;;;2.08;1.20;;;15.50;99.90;;;;;;5006488;28;20030;-77
2022/05/26 04:12:05;;;;;;;3.40;1.00;;;15.50;99.90;;;;;;5008974;28;20033;-79
2022/05/26 04:14:31;;;;;;;2.67;1.95;;;15.60;99.90;;;;;;5012294;28;20039;-80
2022/05/26 04:16:58;;;;;;;3.72;1.00;;;15.70;99.90;;;;;;5002154;28;20030;-77
2022/05/26 04:19:24;;;;;;;4.03;1.08;;;15.80;99.90;;;;;;5012622;28;20022;-78
2022/05/26 04:24:34;;;;;;;2.78;1.00;;;15.90;99.90;;;;;;5016994;28;20022;-78
2022/05/26 04:26:59;;;;;;;1.05;0.82;;;15.90;99.90;;;;;;5014536;28;20031;-76
2022/05/26 04:29:25;;;;;;;3.05;0.93;;;16.00;99.90;;;;;;5015862;28;20018;-77
2022/05/26 04:31:51;;;;;;;2.20;1.40;;;16.00;99.90;;;;;;5014852;28;20049;-78
2022/05/26 04:34:18;;;;;;;4.22;1.25;;;16.00;99.90;;;;;;5008186;28;20101;-76
2022/05/26 04:36:44;;;;;;;7.53;3.30;;;16.10;99.90;;;;;;5023249;28;20022;-76
2022/05/26 04:39:10;;;;;;;1.95;0.90;;;16.10;99.90;;;;;;5016647;28;20034;-76
2022/05/26 04:41:36;;;;;;;3.95;1.10;;;16.30;99.90;;;;;;5016710;28;20053;-76
2022/05/26 04:44:02;;;;;;;3.85;0.80;;;16.40;99.90;;;;;;5004340;28;20049;-77
2022/05/26 04:46:27;;;;;;;1.15;0.90;;;16.50;99.90;;;;;;4996396;28;20061;-78
2022/05/26 04:48:53;;;;;;;2.85;0.75;;;16.60;99.90;;;;;;4996934;28;20026;-77
2022/05/26 04:51:19;;;;;;;1.75;0.88;;;16.70;99.90;;;;;;4999698;28;20022;-77
2022/05/26 04:53:45;;;;;;;1.08;0.80;;;16.70;99.90;;;;;;5015178;28;20107;-79
2022/05/26 04:56:12;;;;;;;1.55;0.88;;;16.80;99.90;;;;;;5022291;28;20496;-78
2022/05/26 04:58:37;;;;;;;1.23;0.70;;;16.90;99.90;;;;;;5017852;28;20036;-77
2022/05/26 05:01:17;;;;;;;2.58;1.00;;;17.10;99.90;;;;;;5015895;28;20106;-78
2022/05/26 05:03:44;;;;;;;2.35;0.88;;;17.30;99.90;;;;;;5015415;28;20109;-76
2022/05/26 05:06:10;;;;;;;1.83;0.90;;;17.50;99.90;;;;;;5015115;28;20101;-77
2022/05/26 05:08:36;;;;;;;1.63;0.88;;;17.70;99.90;;;;;;5015891;28;20034;-77
2022/05/26 05:11:02;;;;;;;1.65;0.60;;;17.80;99.90;;;;;;5000999;28;20077;-78
2022/05/26 05:13:28;;;;;;;1.25;0.77;;;17.90;99.90;;;;;;5002099;28;20101;-78
2022/05/26 05:16:02;;;;;;;1.27;0.70;;;18.00;99.90;;;;;;5007146;28;20030;-77
2022/05/26 05:18:28;;;;;;;2.97;1.50;;;18.00;99.90;;;;;;5005754;28;20045;-77
2022/05/26 05:20:57;;;;;;;4.28;1.05;;;18.00;99.90;;;;;;4999674;28;20132;-77
2022/05/26 05:23:24;;;;;;;2.38;0.80;;;18.10;99.90;;;;;;4991926;28;20042;-77
2022/05/26 05:25:53;;;;;;;4.45;0.85;;;18.00;99.90;;;;;;4977656;28;20509;-77
2022/05/26 05:28:25;;;;;;;0.52;0.50;;;18.20;99.90;;;;;;4978241;28;20039;-77
2022/05/26 05:30:56;;;;;;;2.03;1.00;;;18.40;99.90;;;;;;5000256;28;20062;-78
2022/05/26 05:33:30;;;;;;;1.67;0.32;;;18.80;99.90;;;;;;5011794;28;20042;-77
2022/05/26 05:36:06;;;;;;;0.60;0.60;;;19.10;99.90;;;;;;5018681;28;20033;-77
2022/05/26 05:38:34;;;;;;;0.60;0.60;;;19.40;99.90;;;;;;5023058;28;20038;-78
2022/05/26 05:41:01;;;;;;;2.63;0.60;;;19.50;99.90;;;;;;5010926;28;20033;-78
2022/05/26 05:43:29;;;;;;;1.67;0.52;;;19.60;99.90;;;;;;5023223;28;20373;-78
2022/05/26 05:45:55;;;;;;;0.70;0.50;;;19.50;99.90;;;;;;5021036;28;20049;-78
2022/05/26 05:48:21;;;;;;;0.73;0.68;;;19.50;99.90;;;;;;5012037;28;20046;-77
2022/05/26 05:50:47;;;;;;;1.48;0.50;;;19.60;99.90;;;;;;5013816;28;20045;-79
2022/05/26 05:53:15;;;;;;;1.17;0.40;;;19.60;99.90;;;;;;5013920;28;20045;-78
2022/05/26 05:55:41;;;;;;;0.50;0.50;;;19.70;99.90;;;;;;5014651;28;20026;-78
2022/05/26 05:58:08;;;;;;;0.98;0.60;;;19.70;99.90;;;;;;5014366;28;20036;-77
2022/05/26 06:00:35;;;;;;;2.30;0.60;;;19.90;99.90;;;;;;5014012;28;20022;-80
2022/05/26 06:03:01;;;;;;;2.17;0.50;;;20.00;99.90;;;;;;5016159;28;20038;-78
2022/05/26 06:05:27;;;;;;;2.03;0.50;;;20.10;99.90;;;;;;5009793;28;20041;-79
2022/05/26 06:07:53;;;;;;;1.77;0.50;;;20.10;99.90;;;;;;4999982;28;20034;-79
2022/05/26 06:10:18;;;;;;;0.40;0.40;;;20.10;99.90;;;;;;5000937;28;20042;-79
2022/05/26 06:12:46;;;;;;;0.70;0.70;;;20.20;99.90;;;;;;5001655;28;20493;-80
2022/05/26 06:15:12;;;;;;;0.77;0.60;;;20.30;99.90;;;;;;4999570;28;20034;-79
2022/05/26 06:17:39;;;;;;;1.63;0.60;;;20.30;99.90;;;;;;5001603;28;20030;-81
2022/05/26 06:20:06;;;;;;;3.13;0.63;;;20.30;99.90;;;;;;5021761;23;20407;-91
2022/05/26 06:22:35;;;;;;;3.60;0.88;;;20.30;99.90;;;;;;4971973;28;20042;-88
2022/05/26 06:25:02;;;;;;;1.00;0.75;;;20.40;99.90;;;;;;4970513;29;20015;-88
2022/05/26 06:30:16;;;;;;;0.85;0.50;;;20.50;99.90;;;;;;4955867;29;20032;-90
2022/05/26 06:38:22;;;;;;;0.95;0.60;;;20.90;99.90;;;;;;4978614;28;20023;-84
2022/05/26 06:40:49;;;;;;;1.20;0.50;;;20.90;99.90;;;;;;4980286;28;20043;-88
2022/05/26 06:43:15;;;;;;;1.33;1.02;;;21.00;99.90;;;;;;4981288;28;20036;-85
2022/05/26 06:45:44;;;;;;;2.38;0.60;;;21.00;99.90;;;;;;4976758;28;20038;-87
2022/05/26 06:48:10;;;;;;;1.23;0.82;;;21.00;99.90;;;;;;4979753;28;20035;-85
2022/05/26 06:50:36;;;;;;;1.90;1.25;;;21.00;99.90;;;;;;4980088;28;20050;-84
2022/05/26 06:53:02;;;;;;;2.47;0.80;;;21.10;99.90;;;;;;4981079;28;20027;-84
2022/05/26 06:55:27;;;;;;;2.00;0.82;;;21.10;99.90;;;;;;4981084;28;20021;-86
2022/05/26 06:57:53;;;;;;;0.95;0.60;;;21.20;99.90;;;;;;4980532;28;20043;-82
2022/05/26 07:00:19;;;;;;;0.70;0.70;;;21.10;99.90;;;;;;4976540;28;20054;-87
2022/05/26 07:02:45;;;;;;;1.92;0.75;;;21.10;99.90;;;;;;4973403;28;20054;-89
2022/05/26 07:05:12;;;;;;;2.03;0.90;;;21.20;99.90;;;;;;4974055;29;20031;-90
2022/05/26 07:07:42;;;;;;;1.45;1.17;;;21.30;99.90;;;;;;4976583;29;20074;-87
2022/05/26 07:10:10;;;;;;;0.77;0.77;;;21.50;99.90;;;;;;4978346;28;20035;-89
2022/05/26 07:12:35;;;;;;;0.90;0.80;;;21.50;99.90;;;;;;4973483;28;20011;-87
2022/05/26 07:15:03;;;;;;;1.05;0.75;;;21.70;99.90;;;;;;4973920;29;20027;-89
2022/05/26 07:17:30;;;;;;;1.48;0.90;;;21.90;99.90;;;;;;4965976;28;20031;-87
2022/05/26 07:19:55;;;;;;;0.60;0.60;;;22.10;99.90;;;;;;4963239;28;20399;-87
2022/05/26 07:22:22;;;;;;;0.90;0.55;;;22.00;99.90;;;;;;4945598;29;20027;-87
2022/05/26 07:24:51;;;;;;;0.88;0.63;;;22.00;99.90;;;;;;4962021;29;20511;-86
2022/05/26 07:27:17;;;;;;;3.42;0.77;;;22.00;99.90;;;;;;4962765;29;20082;-85
2022/05/26 07:29:43;;;;;;;0.95;0.60;;;22.20;99.90;;;;;;4964528;28;20039;-88
2022/05/26 07:32:14;;;;;;;1.20;0.60;;;22.30;99.90;;;;;;4967078;28;20034;-89
2022/05/26 07:34:41;;;;;;;3.42;0.88;;;22.50;99.70;;;;;;4969450;28;20117;-84
2022/05/26 07:42:37;;;;;;;3.30;0.77;;;21.90;99.90;;;;;;4962353;29;20470;-87
2022/05/26 07:45:04;;;;;;;2.60;0.60;;;21.90;99.90;;;;;;4963280;28;20042;-87
2022/05/26 07:47:30;;;;;;;1.10;0.80;;;21.90;99.90;;;;;;4963550;29;20085;-86
2022/05/26 07:49:56;;;;;;;0.50;0.50;;;21.90;99.90;;;;;;4966379;29;20019;-86
2022/05/26 07:52:22;;;;;;;1.80;0.80;;;21.80;99.90;;;;;;4977757;28;20051;-85
2022/05/26 07:54:47;;;;;;;1.83;0.70;;;21.90;99.90;;;;;;4980092;28;20015;-83
2022/05/26 07:57:22;;;;;;;2.72;0.63;;;21.80;99.90;;;;;;4978684;28;20050;-85
2022/05/26 07:59:49;;;;;;;0.75;0.60;;;21.90;99.70;;;;;;4976090;28;20023;-85
2022/05/26 08:02:15;;;;;;;1.10;0.70;;;21.90;99.80;;;;;;4973287;29;20028;-86
2022/05/26 08:04:41;;;;;;;2.72;0.90;;;22.00;99.80;;;;;;4974158;28;20038;-89
2022/05/26 08:07:06;;;;;;;1.00;0.90;;;22.20;99.90;;;;;;4970112;28;20032;-87
2022/05/26 08:09:32;;;;;;;2.80;0.90;;;22.20;99.50;;;;;;4966053;28;20058;-88
2022/05/26 08:11:58;;;;;;;0.60;0.60;;;22.50;99.30;;;;;;4976328;28;20024;-88
2022/05/26 08:14:25;;;;;;;0.50;0.50;;;22.70;99.00;;;;;;4978524;29;20020;-86
2022/05/26 08:16:51;;;;;;;2.47;0.57;;;22.90;98.40;;;;;;4978579;28;20055;-87
2022/05/26 08:19:17;;;;;;;2.53;0.77;;;23.10;98.60;;;;;;4978178;28;20086;-85
2022/05/26 08:21:43;;;;;;;1.40;0.73;;;23.30;97.90;;;;;;4979120;28;20122;-84
2022/05/26 08:24:09;;;;;;;2.55;1.13;;;23.30;98.10;;;;;;4979160;28;20067;-85
2022/05/26 08:26:34;;;;;;;3.45;0.70;;;23.30;97.70;;;;;;4979043;28;20078;-86
2022/05/26 08:29:00;;;;;;;1.60;0.68;;;23.10;97.10;;;;;;4978361;28;20027;-85
2022/05/26 08:31:26;;;;;;;0.68;0.60;;;23.00;97.30;;;;;;4976964;28;20047;-86
2022/05/26 08:33:52;;;;;;;3.40;0.70;;;22.90;97.60;;;;;;4973197;28;20058;-86
2022/05/26 08:36:23;;;;;;;0.73;0.50;;;22.90;97.90;;;;;;4983733;28;20122;-87
2022/05/26 08:38:49;;;;;;;3.95;1.05;;;23.00;97.20;;;;;;4975660;28;20034;-88
2022/05/26 08:41:22;;;;;;;0.82;0.70;;;22.70;98.00;;;;;;4973808;28;20011;-87
2022/05/26 08:43:58;;;;;;;3.05;0.90;;;22.70;97.60;;;;;;4967670;29;20053;-88
2022/05/26 08:46:31;;;;;;;1.40;0.70;;;22.80;97.90;;;;;;4969593;28;20031;-87
2022/05/26 08:49:03;;;;;;;1.35;0.60;;;22.80;97.40;;;;;;4972695;28;20033;-87
2022/05/26 08:51:28;;;;;;;1.13;0.70;;;22.70;97.10;;;;;;4972014;28;20035;-91
2022/05/26 08:53:58;;;;;;;0.60;0.60;;;22.70;97.60;;;;;;4956618;29;20098;-89
2022/05/26 08:56:27;;;;;;;1.15;0.65;;;22.40;96.70;;;;;;4969376;29;20043;-90
2022/05/26 08:59:01;;;;;;;0.77;0.60;;;22.40;97.30;;;;;;4952900;29;20019;-90
2022/05/26 09:01:31;;;;;;;2.13;0.70;;;22.40;97.20;;;;;;4975166;28;20027;-91
2022/05/26 09:04:02;;;;;;;1.02;0.80;;;22.30;97.20;;;;;;4977172;29;20011;-92
2022/05/26 09:12:55;;;;;;;0.70;0.60;;;22.30;97.00;;;;;;4976421;28;20043;-90
2022/05/26 09:15:37;;;;;;;4.55;1.00;;;22.30;97.50;;;;;;4960131;28;20033;-91
2022/05/26 09:18:21;;;;;;;2.47;1.20;;;22.30;97.00;;;;;;4950713;28;20035;-91
2022/05/26 09:20:54;;;;;;;1.70;0.80;;;22.40;97.30;;;;;;4963339;28;20027;-91
2022/05/26 09:23:31;;;;;;;4.53;1.00;;;22.30;97.20;;;;;;4962371;28;20024;-90
2022/05/26 09:26:24;;;;;;;4.25;1.63;;;22.30;97.30;;;;;;4978468;28;20106;-92
2022/05/26 09:28:54;;;;;;;3.42;1.85;;;22.20;97.20;;;;;;4968513;28;20026;-89
2022/05/26 09:31:49;;;;;;;2.72;1.33;;;22.00;97.20;;;;;;4961521;28;20031;-91
2022/05/26 09:34:32;;;;;;;3.67;2.30;;;22.00;97.60;;;;;;4973948;28;20107;-92
2022/05/26 09:37:02;;;;;;;3.45;0.93;;;22.20;97.20;;;;;;4973677;28;20055;-90
2022/05/26 09:39:37;;;;;;;2.70;0.90;;;22.60;97.00;;;;;;4971773;28;20043;-91
2022/05/26 09:42:28;;;;;;;1.85;1.05;;;23.20;96.20;;;;;;4971377;29;20027;-90
2022/05/26 09:45:02;;;;;;;3.95;1.10;;;23.60;95.90;;;;;;4954701;29;20038;-91
2022/05/26 09:47:32;;;;;;;3.73;0.83;;;24.10;95.60;;;;;;4970199;29;20046;-89
2022/05/26 09:50:01;;;;;;;2.10;1.05;;;24.70;94.80;;;;;;4952089;29;20267;-90
2022/05/26 09:52:39;;;;;;;8.82;1.13;;;25.40;93.90;;;;;;4971121;28;20083;-91
2022/05/26 09:55:08;;;;;;;2.53;1.25;;;25.90;93.70;;;;;;4973891;29;20035;-90
2022/05/26 09:57:37;;;;;;;1.77;0.80;;;25.10;93.50;;;;;;4962226;28;20169;-91
2022/05/26 10:00:17;;;;;;;2.63;1.15;;;24.80;93.50;;;;;;4978428;28;20046;-91
2022/05/26 10:02:47;;;;;;;2.17;1.17;;;24.30;93.90;;;;;;4978746;28;20029;-92
2022/05/26 10:05:53;;;;;;;4.88;1.25;;;24.70;93.80;;;;;;4961981;28;20028;-91
2022/05/26 10:08:41;;;;;;;6.82;1.38;;;25.60;93.10;;;;;;4962283;28;20027;-90
2022/05/26 10:11:18;;;;;;;2.35;1.05;;;25.60;92.30;;;;;;4974169;29;20304;-91
2022/05/26 10:14:06;;;;;;;4.15;1.20;;;26.30;91.90;;;;;;4973235;29;20039;-92
2022/05/26 10:16:43;;;;;;;2.30;0.95;;;26.60;91.70;;;;;;4970047;28;20032;-91
2022/05/26 10:19:33;;;;;;;5.95;1.40;;;27.90;90.50;;;;;;4975107;28;20038;-88
2022/05/26 10:22:13;;;;;;;2.00;1.13;;;28.80;86.10;;;;;;4977678;28;20027;-92
2022/05/26 10:24:59;;;;;;;2.05;1.10;;;28.10;86.40;;;;;;4978580;28;20043;-92
2022/05/26 10:27:32;;;;;;;8.55;5.22;;;28.60;85.20;;;;;;4978428;28;20099;-91
2022/05/26 10:30:09;;;;;;;4.05;2.50;;;28.50;84.00;;;;;;4977835;28;20024;-90
2022/05/26 10:33:05;;;;;;;2.75;1.33;;;28.10;85.40;;;;;;4977596;28;20047;-93
2022/05/26 10:35:30;;;;;;;;;;;29.50;82.50;;;;;;4960262;29;20132;-90
2022/05/26 10:38:14;;;;;;;3.75;1.00;;;29.90;78.80;;;;;;4957341;29;19906;-93
2022/05/26 10:41:00;;;;;;;4.57;1.00;;;29.50;80.10;;;;;;4968473;28;20031;-90
2022/05/26 10:43:43;;;;;;;3.55;0.90;;;31.20;76.20;;;;;;4975598;28;20023;-91
2022/05/26 10:46:09;;;;;;;3.90;0.98;;;30.00;73.50;;;;;;4978662;28;20039;-90
2022/05/26 10:48:38;;;;;;;2.22;1.27;;;29.40;75.20;;;;;;4978233;28;20023;-91
2022/05/26 10:51:40;;;;;;;3.67;2.40;;;29.70;73.00;;;;;;4978976;28;20012;-90
2022/05/26 10:54:36;;;;;;;3.55;1.50;;;28.50;73.90;;;;;;4955362;28;20039;-88
2022/05/26 10:57:09;;;;;;;2.95;1.00;;;28.10;75.40;;;;;;4966080;29;20570;-89
2022/05/26 10:59:56;;;;;;;3.63;1.00;;;27.60;74.20;;;;;;4964572;28;20062;-88
2022/05/26 11:02:25;;;;;;;3.65;0.82;;;28.10;72.40;;;;;;4968216;28;20023;-89
2022/05/26 11:05:20;;;;;;;3.53;1.10;;;29.00;73.30;;;;;;4976894;28;20011;-87
2022/05/26 11:08:16;;;;;;;4.25;1.00;;;30.90;71.30;;;;;;4972324;29;20126;-85
2022/05/26 11:10:48;;;;;;;4.57;0.82;;;32.50;65.50;;;;;;4979602;28;20015;-86
2022/05/26 11:13:17;;;;;;;6.70;1.33;;;33.30;63.80;;;;;;4979462;28;20039;-86
2022/05/26 11:18:45;;;;;;;1.45;0.75;;;34.40;61.60;;;;;;4976898;28;20031;-89
2022/05/26 11:21:17;;;;;;;3.00;0.68;;;34.70;59.30;;;;;;4976948;28;20189;-88
2022/05/26 11:23:44;;;;;;;4.18;1.20;;;34.10;58.20;;;;;;4978171;28;20058;-88
2022/05/26 11:26:21;;;;;;;2.70;0.70;;;33.90;58.30;;;;;;4974207;29;20023;-88
2022/05/26 11:28:53;;;;;;;1.25;0.80;;;34.20;57.40;;;;;;4981117;28;20031;-88
2022/05/26 11:37:29;;;;;;;2.40;0.90;;;35.80;54.80;;;;;;4975234;29;20059;-88
2022/05/26 11:40:00;;;;;;;2.58;1.15;;;35.60;54.50;;;;;;4979533;28;20079;-89
2022/05/26 11:42:32;;;;;;;2.15;0.90;;;34.10;54.40;;;;;;4981138;28;20027;-87
2022/05/26 11:45:10;;;;;;;1.58;0.90;;;33.40;56.20;;;;;;4980501;28;20031;-90
2022/05/26 11:47:51;;;;;;;2.53;0.90;;;34.40;54.70;;;;;;4979463;28;20038;-90
2022/05/26 11:50:22;;;;;;;0.63;0.50;;;34.90;53.20;;;;;;4979269;28;20090;-90
2022/05/26 11:52:53;;;;;;;1.13;0.70;;;34.70;53.20;;;;;;4974937;28;20038;-89
2022/05/26 11:55:49;;;;;;;5.50;2.50;;;34.60;53.30;;;;;;4969301;29;20059;-90
2022/05/26 11:58:35;;;;;;;1.73;0.90;;;35.20;53.20;;;;;;4980754;28;20114;-90
2022/05/26 12:01:19;;;;;;;1.90;0.90;;;34.30;53.80;;;;;;4981644;28;20133;-89
2022/05/26 12:04:04;;;;;;;2.13;1.20;;;32.90;54.80;;;;;;4981358;28;20047;-88
2022/05/26 12:06:39;;;;;;;1.20;0.80;;;31.30;57.20;;;;;;4980960;28;20079;-88
2022/05/26 12:09:27;;;;;;;3.88;1.15;;;31.90;56.60;;;;;;4980943;28;20086;-88
2022/05/26 12:11:58;;;;;;;4.30;0.95;;;32.70;56.10;;;;;;4980216;28;20046;-88
2022/05/26 12:14:42;;;;;;;1.58;0.90;;;32.30;55.80;;;;;;4980750;28;20032;-89
2022/05/26 12:17:34;;;;;;;3.70;0.90;;;31.30;56.50;;;;;;4980295;28;20015;-89
2022/05/26 12:20:24;;;;;;;4.10;0.95;;;30.60;57.80;;;;;;5005912;23;20046;-82
2022/05/26 12:22:49;;;;;;;5.50;1.25;;;28.60;60.00;;;;;;5006781;28;20034;-80
2022/05/26 12:25:18;;;;;;;2.58;1.02;;;26.70;62.80;;;;;;5008015;28;20030;-82
2022/05/26 12:27:54;;;;;;;1.70;0.88;;;27.00;62.20;;;;;;5007461;28;20034;-81
2022/05/26 12:30:43;;;;;;;1.70;0.98;;;27.60;61.60;;;;;;5010347;28;20037;-82
2022/05/26 12:33:19;;;;;;;7.40;1.00;;;28.10;61.50;;;;;;5004870;28;20180;-80
2022/05/26 12:35:51;;;;;;;1.13;0.88;;;28.70;59.90;;;;;;5002856;28;20110;-79
2022/05/26 12:38:25;;;;;;;1.73;0.90;;;28.50;60.50;;;;;;5002720;28;20033;-81
2022/05/26 12:41:09;;;;;;;;;;;28.30;60.70;;;;;;5004206;28;20037;-81
2022/05/26 12:43:52;;;;;;;1.35;0.80;;;28.40;60.70;;;;;;5003500;28;20091;-82
2022/05/26 12:46:43;;;;;;;1.98;0.80;;;29.30;61.30;;;;;;5007640;28;20045;-81
2022/05/26 12:49:17;;;;;;;2.92;0.90;;;30.70;60.60;;;;;;5007182;28;20494;-82
2022/05/26 12:51:43;;;;;;;2.58;0.90;;;31.60;59.50;;;;;;5007447;28;20197;-82
2022/05/26 12:54:19;;;;;;;3.20;1.10;;;32.10;58.80;;;;;;5012259;28;20042;-81
2022/05/26 12:56:59;;;;;;;3.88;0.88;;;31.90;58.70;;;;;;5012161;28;20011;-82
2022/05/26 12:59:31;;;;;;;3.05;0.90;;;31.50;58.60;;;;;;4998668;28;20110;-84
2022/05/26 13:01:57;;;;;;;2.70;1.05;;;31.50;58.70;;;;;;5000231;28;20084;-81
2022/05/26 13:04:32;;;;;;;2.60;0.80;;;31.60;58.00;;;;;;5003895;28;20054;-80
2022/05/26 13:07:04;;;;;;;4.68;1.10;;;31.90;58.00;;;;;;5004012;28;20038;-83
2022/05/26 13:09:38;;;;;;;1.00;0.90;;;32.50;57.70;;;;;;5005032;28;20034;-81
2022/05/26 13:12:06;;;;;;;2.10;1.15;;;31.20;58.20;;;;;;4999355;28;20043;-82
2022/05/26 13:14:38;;;;;;;1.27;0.88;;;30.00;59.60;;;;;;4998977;28;20030;-80
2022/05/26 13:17:18;;;;;;;1.85;0.75;;;30.20;59.60;;;;;;4998901;28;20038;-81
2022/05/26 13:19:56;;;;;;;4.85;1.10;;;31.00;57.80;;;;;;4997944;28;20039;-82
2022/05/26 13:22:30;;;;;;;1.17;0.80;;;31.80;57.60;;;;;;4966641;28;20038;-82
2022/05/26 13:24:57;;;;;;;1.03;0.77;;;32.90;56.40;;;;;;4998558;28;20050;-83
2022/05/26 13:27:26;;;;;;;3.42;1.00;;;34.10;56.10;;;;;;4998038;28;20510;-82
2022/05/26 13:33:07;;;;;;;3.75;0.85;;;34.90;55.60;;;;;;4998857;28;20030;-80
2022/05/26 13:35:25;;;;;;;2.15;0.90;;;33.50;54.90;;;;;;4998384;28;20113;-82
2022/05/26 13:37:51;;;;;;;3.55;0.90;;;32.90;55.80;;;;;;4998928;28;20054;-81
2022/05/26 13:40:21;;;;;;;3.22;1.13;;;31.30;57.40;;;;;;4999110;28;20041;-83
2022/05/26 13:42:50;;;;;;;4.55;0.82;;;31.10;58.10;;;;;;5001286;28;20026;-82
2022/05/26 13:45:21;;;;;;;1.98;0.80;;;31.00;58.40;;;;;;5003738;28;20550;-82
2022/05/26 13:47:47;;;;;;;1.95;0.82;;;32.40;57.30;;;;;;5004151;28;20050;-79
2022/05/26 13:50:13;;;;;;;2.17;0.85;;;33.40;56.90;;;;;;5008692;28;20018;-79
2022/05/26 13:52:40;;;;;;;1.75;0.65;;;34.20;55.00;;;;;;4983438;28;20041;-82
2022/05/26 13:55:22;;;;;;;3.00;0.77;;;35.20;54.10;;;;;;4997045;28;20022;-80
2022/05/26 13:57:54;;;;;;;4.97;1.20;;;36.50;53.60;;;;;;5006700;28;20040;-81
2022/05/26 14:00:28;;;;;;;1.00;0.60;;;36.10;52.90;;;;;;5008723;28;20041;-79